createdAt,value
2019-04-20T00:01:48.370Z,103453.63
2019-04-20T00:04:23.379Z,103456.09
2019-04-20T00:06:51.348Z,103446.25
2019-04-20T00:09:24.630Z,103447.12
2019-04-20T00:12:01.544Z,103443.39
2019-04-20T00:14:26.111Z,103443.76
2019-04-20T00:16:51.139Z,103445.48
2019-04-20T00:19:26.222Z,103438.23
2019-04-20T00:22:01.527Z,103439.91
2019-04-20T00:24:33.524Z,103442.41
2019-04-20T00:27:22.432Z,103444.05
2019-04-20T00:29:50.479Z,103447.03
2019-04-20T00:32:12.518Z,103448.75
2019-04-20T00:34:37.202Z,103460.06
2019-04-20T00:37:05.178Z,103460.02
2019-04-20T00:39:34.068Z,103455.75
2019-04-20T00:42:06.615Z,103459.11
2019-04-20T00:44:38.089Z,103458.58
2019-04-20T00:47:18.120Z,103455.87
2019-04-20T00:49:50.946Z,103453.66
2019-04-20T00:54:37.271Z,103459.30
2019-04-20T00:57:20.368Z,103459.70
2019-04-20T01:00:03.546Z,103454.67
2019-04-20T01:02:20.987Z,103451.52
2019-04-20T01:05:02.169Z,103452.87
2019-04-20T01:07:32.098Z,103449.34
2019-04-20T01:10:06.957Z,103450.97
2019-04-20T01:12:40.486Z,103453.51
2019-04-20T01:15:16.686Z,103444.09
2019-04-20T01:17:41.705Z,103450.48
2019-04-20T01:20:11.357Z,103448.34
2019-04-20T01:22:49.511Z,103449.07
2019-04-20T01:25:19.167Z,103449.07
2019-04-20T01:28:01.953Z,103447.80
2019-04-20T01:30:22.534Z,103452.42
2019-04-20T01:33:00.475Z,103445.99
2019-04-20T01:35:31.946Z,103452.34
2019-04-20T01:40:16.977Z,103456.59
2019-04-20T01:42:46.764Z,103457.05
2019-04-20T01:45:25.188Z,103459.63
2019-04-20T01:47:52.322Z,103461.72
2019-04-20T01:50:22.659Z,103457.86
2019-04-20T01:52:58.198Z,103459.59
2019-04-20T01:55:38.665Z,103454.88
2019-04-20T01:58:17.568Z,103458.68
2019-04-20T02:00:51.185Z,103453.52
2019-04-20T02:03:52.466Z,103460.77
2019-04-20T02:06:23.426Z,103455.64
2019-04-20T02:08:58.230Z,103458.95
2019-04-20T02:11:29.458Z,103463.13
2019-04-20T02:13:57.337Z,103455.06
2019-04-20T02:16:33.077Z,103451.56
2019-04-20T02:19:10.951Z,103453.74
2019-04-20T02:21:45.001Z,103468.55
2019-04-20T02:24:00.599Z,103459.63
2019-04-20T02:26:26.504Z,103458.81
2019-04-20T02:29:21.787Z,103466.74
2019-04-20T02:32:10.078Z,103468.02
2019-04-20T02:34:59.783Z,103466.74
2019-04-20T02:37:56.599Z,103469.28
2019-04-20T02:40:09.180Z,103469.55
2019-04-20T02:42:44.706Z,103468.55
2019-04-20T02:45:18.694Z,103469.81
2019-04-20T02:50:15.687Z,103471.30
2019-04-20T02:57:47.830Z,103466.09
2019-04-20T03:00:24.048Z,103464.78
2019-04-20T03:02:30.023Z,103457.48
2019-04-20T03:04:56.073Z,103457.34
2019-04-20T03:07:31.627Z,103452.95
2019-04-20T03:10:06.561Z,103452.86
2019-04-20T03:12:38.863Z,103455.80
2019-04-20T03:15:02.867Z,103457.42
2019-04-20T03:17:38.431Z,103452.12
2019-04-20T03:20:03.083Z,103452.52
2019-04-20T03:23:05.142Z,103449.53
2019-04-20T03:25:17.890Z,103450.75
2019-04-20T03:27:59.282Z,103445.63
2019-04-20T03:33:58.395Z,103445.39
2019-04-20T03:36:12.477Z,103438.55
2019-04-20T03:38:34.826Z,103445.14
2019-04-20T03:40:56.658Z,103436.68
2019-04-20T03:43:12.208Z,103455.58
2019-04-20T03:45:50.634Z,103443.32
2019-04-20T03:48:32.252Z,103448.34
2019-04-20T03:51:06.107Z,103445.75
2019-04-20T03:53:37.976Z,103451.53
2019-04-20T03:56:14.054Z,103448.95
2019-04-20T03:58:52.051Z,103444.59
2019-04-20T04:02:20.151Z,103448.80
2019-04-20T04:04:34.506Z,103447.84
2019-04-20T04:06:53.044Z,103450.31
2019-04-20T04:09:29.207Z,103451.13
2019-04-20T04:12:03.802Z,103443.83
2019-04-20T04:14:21.843Z,103436.98
2019-04-20T04:16:54.807Z,103437.34
2019-04-20T04:19:28.459Z,103449.14
2019-04-20T04:22:11.151Z,103446.56
2019-04-20T04:24:34.431Z,103455.58
2019-04-20T04:27:09.180Z,103450.11
2019-04-20T04:29:47.110Z,103454.47
2019-04-20T04:32:27.071Z,103456.80
2019-04-20T04:34:44.399Z,103459.44
2019-04-20T04:37:17.926Z,103454.77
2019-04-20T04:39:49.045Z,103460.52
2019-04-20T04:42:22.594Z,103461.16
2019-04-20T04:44:44.804Z,103461.81
2019-04-20T04:47:06.336Z,103474.67
2019-04-20T04:49:36.681Z,103463.03
2019-04-20T04:52:07.886Z,103470.18
2019-04-20T04:54:43.840Z,103467.92
2019-04-20T04:57:05.308Z,103471.88
2019-04-20T04:59:34.470Z,103485.41
2019-04-20T05:02:03.520Z,103485.21
2019-04-20T05:05:21.957Z,103493.39
2019-04-20T05:07:46.455Z,103495.84
2019-04-20T05:10:01.245Z,103509.12
2019-04-20T05:12:33.423Z,103504.64
2019-04-20T05:15:10.456Z,103500.38
2019-04-20T05:17:52.704Z,103513.93
2019-04-20T05:20:23.059Z,103516.11
2019-04-20T05:23:00.346Z,103519.41
2019-04-20T05:25:57.010Z,103529.39
2019-04-20T05:28:18.066Z,103528.75
2019-04-20T05:30:42.695Z,103526.80
2019-04-20T05:33:11.631Z,103527.75
2019-04-20T05:36:01.909Z,103520.58
2019-04-20T05:38:37.059Z,103523.48
2019-04-20T05:40:55.739Z,103531.63
2019-04-20T05:43:47.207Z,103529.36
2019-04-20T05:46:22.049Z,103536.64
2019-04-20T05:48:50.958Z,103524.44
2019-04-20T05:51:26.335Z,103539.55
2019-04-20T05:53:52.092Z,103525.86
2019-04-20T05:56:29.158Z,103525.31
2019-04-20T05:58:56.605Z,103523.30
2019-04-20T06:01:30.504Z,103528.81
2019-04-20T06:03:53.898Z,103522.86
2019-04-20T06:06:27.662Z,103526.48
2019-04-20T06:08:59.964Z,103532.78
2019-04-20T06:11:26.611Z,103514.14
2019-04-20T06:14:08.076Z,103545.09
2019-04-20T06:16:56.848Z,103529.20
2019-04-20T06:19:30.974Z,103534.59
2019-04-20T06:22:10.338Z,103537.25
2019-04-20T06:24:47.854Z,103529.02
2019-04-20T06:27:10.353Z,103510.52
2019-04-20T06:29:43.926Z,103527.22
2019-04-20T06:32:21.195Z,103533.66
2019-04-20T06:34:55.892Z,103529.11
2019-04-20T06:37:13.533Z,103540.91
2019-04-20T06:42:15.362Z,103517.84
2019-04-20T06:44:48.199Z,103524.31
2019-04-20T06:47:22.761Z,103526.36
2019-04-20T06:49:42.426Z,103535.23
2019-04-20T06:55:02.771Z,103552.40
2019-04-20T06:57:38.485Z,103536.00
2019-04-20T07:00:07.158Z,103552.94
2019-04-20T07:02:41.483Z,103536.05
2019-04-20T07:05:12.802Z,103534.42
2019-04-20T07:07:45.104Z,103539.83
2019-04-20T07:10:13.337Z,103545.08
2019-04-20T07:16:40.843Z,103543.00
2019-04-20T07:19:13.064Z,103540.17
2019-04-20T07:24:14.149Z,103531.75
2019-04-20T07:26:37.365Z,103541.77
2019-04-20T07:29:07.118Z,103531.54
2019-04-20T07:31:36.044Z,103532.97
2019-04-20T07:34:12.952Z,103528.45
2019-04-20T07:36:40.529Z,103532.23
2019-04-20T07:39:14.725Z,103531.39
2019-04-20T07:42:00.369Z,103535.03
2019-04-20T07:44:11.867Z,103525.82
2019-04-20T07:46:54.545Z,103515.44
2019-04-20T07:49:16.336Z,103509.12
2019-04-20T07:51:28.252Z,103506.03
2019-04-20T07:54:24.517Z,103503.20
2019-04-20T07:56:50.435Z,103508.84
2019-04-20T07:59:03.663Z,103491.79
2019-04-20T08:02:00.606Z,103495.20
2019-04-20T08:04:28.815Z,103500.38
2019-04-20T08:06:47.019Z,103497.31
2019-04-20T08:09:21.963Z,103508.44
2019-04-20T08:12:11.726Z,103506.70
2019-04-20T08:14:42.410Z,103518.56
2019-04-20T08:17:20.379Z,103536.08
2019-04-20T08:19:41.129Z,103552.02
2019-04-20T08:22:16.833Z,103554.74
2019-04-20T08:24:37.174Z,103560.05
2019-04-20T08:27:01.074Z,103564.73
2019-04-20T08:29:45.046Z,103572.80
2019-04-20T08:32:46.789Z,103557.08
2019-04-20T08:35:26.862Z,103554.59
2019-04-20T08:38:14.577Z,103550.61
2019-04-20T08:40:25.466Z,103558.45
2019-04-20T08:43:02.397Z,103546.06
2019-04-20T08:45:31.620Z,103534.88
2019-04-20T08:48:09.774Z,103543.45
2019-04-20T08:50:27.056Z,103541.75
2019-04-20T08:53:12.354Z,103543.83
2019-04-20T08:55:29.833Z,103555.81
2019-04-20T08:57:40.458Z,103558.28
2019-04-20T09:00:11.242Z,103550.16
2019-04-20T09:02:41.344Z,103553.14
2019-04-20T09:05:24.918Z,103541.05
2019-04-20T09:07:55.368Z,103556.33
2019-04-20T09:10:34.357Z,103557.36
2019-04-20T09:12:59.706Z,103548.95
2019-04-20T09:15:16.823Z,103536.42
2019-04-20T09:17:59.102Z,103546.20
2019-04-20T09:20:36.571Z,103544.46
2019-04-20T09:23:16.990Z,103538.41
2019-04-20T09:26:05.919Z,103543.90
2019-04-20T09:28:41.753Z,103540.19
2019-04-20T09:31:22.622Z,103535.30
2019-04-20T09:34:20.376Z,103525.59
2019-04-20T09:36:51.597Z,103518.30
2019-04-20T09:39:43.979Z,103512.27
2019-04-20T09:42:20.398Z,103507.20
2019-04-20T09:44:54.306Z,103521.28
2019-04-20T09:47:29.531Z,103531.27
2019-04-20T09:50:02.708Z,103528.52
2019-04-20T09:52:39.903Z,103524.33
2019-04-20T09:55:07.875Z,103518.31
2019-04-20T09:57:43.693Z,103538.98
2019-04-20T10:00:13.359Z,103530.84
2019-04-20T10:02:30.966Z,103531.67
2019-04-20T10:04:57.740Z,103533.22
2019-04-20T10:07:32.523Z,103530.66
2019-04-20T10:09:57.932Z,103528.27
2019-04-20T10:12:27.125Z,103529.03
2019-04-20T10:14:58.510Z,103525.22
2019-04-20T10:17:29.880Z,103537.20
2019-04-20T10:19:57.823Z,103536.09
2019-04-20T10:22:26.892Z,103528.49
2019-04-20T10:24:57.123Z,103527.57
2019-04-20T10:27:26.545Z,103525.77
2019-04-20T10:29:55.702Z,103521.30
2019-04-20T10:32:32.624Z,103546.70
2019-04-20T10:34:56.820Z,103523.83
2019-04-20T10:37:29.559Z,103527.23
2019-04-20T10:39:58.618Z,103524.20
2019-04-20T10:42:28.142Z,103519.69
2019-04-20T10:44:59.425Z,103524.44
2019-04-20T10:47:29.387Z,103515.81
2019-04-20T10:49:58.952Z,103519.95
2019-04-20T10:52:27.978Z,103524.80
2019-04-20T10:54:57.034Z,103515.39
2019-04-20T10:57:26.122Z,103520.71
2019-04-20T10:59:55.449Z,103510.09
2019-04-20T11:02:25.863Z,103519.64
2019-04-20T11:04:54.998Z,103523.47
2019-04-20T11:07:24.102Z,103519.70
2019-04-20T11:10:05.268Z,103516.73
2019-04-20T11:12:24.223Z,103512.11
2019-04-20T11:14:54.498Z,103521.62
2019-04-20T11:17:24.691Z,103510.93
2019-04-20T11:19:55.013Z,103505.67
2019-04-20T11:22:24.219Z,103506.59
2019-04-20T11:24:54.312Z,103509.37
2019-04-20T11:27:23.682Z,103518.53
2019-04-20T11:29:53.997Z,103503.42
2019-04-20T11:32:24.213Z,103496.61
2019-04-20T11:34:53.407Z,103492.47
2019-04-20T11:37:22.755Z,103501.30
2019-04-20T11:39:52.885Z,103499.62
2019-04-20T11:42:22.094Z,103502.86
2019-04-20T11:44:52.830Z,103502.91
2019-04-20T11:47:22.375Z,103493.36
2019-04-20T11:49:51.608Z,103482.21
2019-04-20T11:52:22.913Z,103487.60
2019-04-20T11:54:52.638Z,103488.95
2019-04-20T11:57:21.894Z,103476.58
2019-04-20T11:59:50.917Z,103486.08
2019-04-20T12:02:40.222Z,103471.91
2019-04-20T12:05:21.386Z,103472.62
2019-04-20T12:07:56.561Z,103473.78
2019-04-20T12:10:27.781Z,103471.21
2019-04-20T12:12:57.536Z,103473.59
2019-04-20T12:15:27.089Z,103476.83
2019-04-20T12:17:56.146Z,103490.73
2019-04-20T12:20:26.866Z,103476.06
2019-04-20T12:22:56.045Z,103477.55
2019-04-20T12:25:25.960Z,103476.12
2019-04-20T12:27:57.393Z,103467.13
2019-04-20T12:30:26.175Z,103457.65
2019-04-20T12:32:59.748Z,103459.64
2019-04-20T12:35:26.650Z,103468.06
2019-04-20T12:37:56.911Z,103452.34
2019-04-20T12:40:26.420Z,103452.67
2019-04-20T12:42:55.499Z,103460.28
2019-04-20T12:45:25.939Z,103448.19
2019-04-20T12:47:55.558Z,103464.70
2019-04-20T12:50:25.692Z,103468.03
2019-04-20T12:52:54.820Z,103459.13
2019-04-20T12:55:23.940Z,103458.84
2019-04-20T12:57:52.961Z,103460.72
2019-04-20T13:00:25.969Z,103456.04
2019-04-20T13:02:55.647Z,103456.11
2019-04-20T13:05:25.581Z,103461.38
2019-04-20T13:07:58.954Z,103453.05
2019-04-20T13:10:25.535Z,103469.59
2019-04-20T13:13:30.324Z,103469.45
2019-04-20T13:16:08.209Z,103457.09
2019-04-20T13:18:59.386Z,103455.58
2019-04-20T13:21:29.261Z,103452.83
2019-04-20T13:23:58.691Z,103453.49
2019-04-20T13:26:28.954Z,103442.55
2019-04-20T13:28:59.180Z,103448.16
2019-04-20T13:31:29.674Z,103432.11
2019-04-20T13:33:59.176Z,103428.16
2019-04-20T13:36:28.592Z,103452.17
2019-04-20T13:38:59.348Z,103441.89
2019-04-20T13:41:29.639Z,103434.92
2019-04-20T13:44:01.243Z,103426.50
2019-04-20T13:46:29.573Z,103433.58
2019-04-20T13:48:58.717Z,103434.64
2019-04-20T13:51:28.704Z,103415.27
2019-04-20T13:53:57.864Z,103416.73
2019-04-20T13:56:29.923Z,103414.83
2019-04-20T13:59:03.760Z,103405.09
2019-04-20T14:01:54.997Z,103408.70
2019-04-20T14:04:30.715Z,103396.23
2019-04-20T14:07:01.720Z,103391.48
2019-04-20T14:09:30.910Z,103389.04
2019-04-20T14:12:11.866Z,103381.36
2019-04-20T14:14:31.043Z,103395.09
2019-04-20T14:17:01.185Z,103407.68
2019-04-20T14:19:31.382Z,103402.91
2019-04-20T14:22:01.980Z,103395.60
2019-04-20T14:24:31.287Z,103393.33
2019-04-20T14:27:01.158Z,103383.27
2019-04-20T14:29:30.639Z,103394.58
2019-04-20T14:32:02.315Z,103394.17
2019-04-20T14:34:31.121Z,103386.75
2019-04-20T14:37:00.378Z,103388.12
2019-04-20T14:39:30.253Z,103381.75
2019-04-20T15:34:31.134Z,102933.69
2019-04-20T15:37:00.289Z,102937.03
2019-04-20T15:39:30.479Z,102946.22
2019-04-20T15:41:59.668Z,102947.12
2019-04-20T15:44:29.282Z,102952.13
2019-04-20T15:46:59.364Z,102954.53
2019-04-20T15:49:29.608Z,102952.23
2019-04-20T15:51:59.706Z,102958.56
2019-04-20T15:54:29.572Z,102954.78
2019-04-20T15:57:02.378Z,102953.13
2019-04-20T15:59:30.622Z,102957.45
2019-04-20T16:02:05.147Z,102954.05
2019-04-20T16:05:00.604Z,102958.61
2019-04-20T16:07:32.982Z,102962.05
2019-04-20T16:10:01.145Z,102959.46
2019-04-20T16:12:31.087Z,102957.98
2019-04-20T16:15:00.110Z,102963.27
2019-04-20T16:17:35.945Z,102964.23
2019-04-20T16:20:06.465Z,102960.50
2019-04-20T16:22:31.088Z,102959.83
2019-04-20T16:25:05.525Z,102957.75
2019-04-20T16:27:38.266Z,102950.20
2019-04-20T16:30:09.480Z,102954.64
2019-04-20T16:32:39.018Z,102950.76
2019-04-20T16:35:08.856Z,102942.32
2019-04-20T16:37:38.430Z,102944.43
2019-04-20T16:40:09.856Z,102948.54
2019-04-20T16:42:40.958Z,102945.20
2019-04-20T16:45:09.842Z,102946.88
2019-04-20T16:47:39.924Z,102942.62
2019-04-20T16:50:10.988Z,102940.44
2019-04-20T16:52:41.075Z,102942.77
2019-04-20T16:55:11.692Z,102941.17
2019-04-20T16:57:41.717Z,102942.55
2019-04-20T17:00:13.711Z,102947.50
2019-04-20T17:02:42.778Z,102944.14
2019-04-20T17:05:13.403Z,102939.28
2019-04-20T17:07:44.893Z,102938.87
2019-04-20T17:10:16.198Z,102940.58
2019-04-20T17:12:46.033Z,102934.88
2019-04-20T17:15:15.901Z,102938.91
2019-04-20T17:17:46.769Z,102935.55
2019-04-20T17:20:17.613Z,102929.18
2019-04-20T17:22:46.770Z,102920.95
2019-04-20T17:25:16.449Z,102923.14
2019-04-20T17:28:22.958Z,102922.91
2019-04-20T17:31:09.206Z,102920.42
2019-04-20T17:33:53.447Z,102915.22
2019-04-20T17:36:18.793Z,102910.81
2019-04-20T17:38:48.516Z,102915.98
2019-04-20T17:41:39.178Z,102908.50
2019-04-20T17:44:07.188Z,102910.05
2019-04-20T17:46:28.733Z,102908.90
2019-04-20T17:49:07.504Z,102903.11
2019-04-20T17:51:46.065Z,102903.48
2019-04-20T17:54:08.445Z,102903.69
2019-04-20T17:56:40.270Z,102905.77
2019-04-20T17:59:10.361Z,102900.13
2019-04-20T18:02:11.843Z,102901.34
2019-04-20T18:05:07.170Z,102893.33
2019-04-20T18:07:37.406Z,102896.80
2019-04-20T18:10:03.062Z,102894.06
2019-04-20T18:12:25.205Z,102887.54
2019-04-20T18:14:53.534Z,102888.27
2019-04-20T18:17:56.514Z,102884.86
2019-04-20T18:20:18.941Z,102888.81
2019-04-20T18:22:54.776Z,102880.44
2019-04-20T18:25:40.063Z,102881.80
2019-04-20T18:28:04.388Z,102873.94
2019-04-20T18:30:43.618Z,102875.83
2019-04-20T18:33:05.487Z,102876.32
2019-04-20T18:35:40.394Z,102878.73
2019-04-20T18:38:10.989Z,102872.52
2019-04-20T18:40:44.625Z,102874.89
2019-04-20T18:43:13.398Z,102871.97
2019-04-20T18:45:58.802Z,102868.02
2019-04-20T18:48:33.484Z,102873.13
2019-04-20T18:50:42.418Z,102881.84
2019-04-20T18:53:16.650Z,102883.37
2019-04-20T18:55:48.200Z,102873.07
2019-04-20T18:58:13.334Z,102879.56
2019-04-20T19:00:47.317Z,102879.23
2019-04-20T19:03:21.133Z,102880.23
2019-04-20T19:05:45.066Z,102885.35
2019-04-20T19:08:15.782Z,102884.66
2019-04-20T19:10:52.221Z,102883.43
2019-04-20T19:13:28.678Z,102879.32
2019-04-20T19:16:16.628Z,102882.22
2019-04-20T19:18:59.421Z,102877.73
2019-04-20T19:21:16.990Z,102872.77
2019-04-20T19:23:55.958Z,102874.99
2019-04-20T19:26:21.113Z,102872.89
2019-04-20T19:28:53.815Z,102871.19
2019-04-20T19:31:35.212Z,102874.42
2019-04-20T19:34:16.899Z,102871.19
2019-04-20T19:36:33.075Z,102871.67
2019-04-20T19:39:05.830Z,102868.94
2019-04-20T19:41:32.133Z,102869.97
2019-04-20T19:44:04.025Z,102862.23
2019-04-20T19:46:50.684Z,102857.27
2019-04-20T19:49:04.027Z,102855.38
2019-04-20T19:51:48.087Z,102860.16
2019-04-20T19:54:22.777Z,102856.05
2019-04-20T19:56:41.466Z,102865.80
2019-04-20T19:59:11.003Z,102862.53
2019-04-20T20:01:29.487Z,102858.95
2019-04-20T20:04:02.241Z,102850.72
2019-04-20T20:06:41.341Z,102848.47
2019-04-20T20:09:05.852Z,102847.98
2019-04-20T20:11:36.403Z,102844.36
2019-04-20T20:14:05.418Z,102844.72
2019-04-20T20:16:54.787Z,102843.72
2019-04-20T20:19:12.173Z,102840.97
2019-04-20T20:21:48.312Z,102848.89
2019-04-20T20:24:06.119Z,102849.59
2019-04-20T20:26:40.635Z,102855.44
2019-04-20T20:29:18.630Z,102848.95
2019-04-20T20:31:52.990Z,102857.23
2019-04-20T20:34:16.709Z,102858.30
2019-04-20T20:36:47.198Z,102853.03
2019-04-20T20:39:19.318Z,102849.09
2019-04-20T20:41:52.894Z,102849.82
2019-04-20T20:44:25.960Z,102845.19
2019-04-20T20:46:58.743Z,102842.66
2019-04-20T20:49:35.583Z,102841.98
2019-04-20T20:52:06.829Z,102842.34
2019-04-20T20:54:29.598Z,102840.83
2019-04-20T20:56:56.846Z,102843.41
2019-04-20T20:59:30.388Z,102840.88
2019-04-20T21:02:00.570Z,102842.61
2019-04-20T21:04:19.759Z,102840.72
2019-04-20T21:06:48.777Z,102841.09
2019-04-20T21:09:18.577Z,102844.03
2019-04-20T21:11:51.952Z,102849.86
2019-04-20T21:14:21.969Z,102854.33
2019-04-20T21:17:00.312Z,102853.81
2019-04-20T21:19:35.552Z,102853.66
2019-04-20T21:21:59.999Z,102849.55
2019-04-20T21:24:26.827Z,102843.91
2019-04-20T21:27:02.775Z,102843.78
2019-04-20T21:29:35.593Z,102842.73
2019-04-20T21:32:05.186Z,102844.11
2019-04-20T21:34:29.252Z,102841.58
2019-04-20T21:37:03.491Z,102834.36
2019-04-20T21:39:39.124Z,102835.08
2019-04-20T21:42:05.425Z,102831.81
2019-04-20T21:44:35.738Z,102839.92
2019-04-20T21:47:03.239Z,102831.33
2019-04-20T21:49:46.209Z,102822.09
2019-04-20T21:52:10.619Z,102826.05
2019-04-20T21:54:34.184Z,102823.31
2019-04-20T21:57:07.272Z,102822.82
2019-04-20T21:59:41.992Z,102818.55
2019-04-20T22:02:15.050Z,102812.17
2019-04-20T22:04:37.584Z,102813.91
2019-04-20T22:07:07.996Z,102813.91
2019-04-20T22:09:43.362Z,102817.88
2019-04-20T22:12:07.931Z,102811.38
2019-04-20T22:14:37.627Z,102809.48
2019-04-20T22:17:07.811Z,102809.48
2019-04-20T22:19:47.448Z,102809.84
2019-04-20T22:22:18.475Z,102809.33
2019-04-20T22:24:51.994Z,102806.42
2019-04-20T22:27:16.489Z,102798.70
2019-04-20T22:29:39.990Z,102793.22
2019-04-20T22:32:12.846Z,102794.44
2019-04-20T22:34:39.867Z,102794.80
2019-04-20T22:37:15.236Z,102795.81
2019-04-20T22:39:47.779Z,102793.76
2019-04-20T22:42:16.133Z,102792.05
2019-04-20T22:44:47.908Z,102792.38
2019-04-20T22:47:22.555Z,102791.89
2019-04-20T22:49:59.757Z,102789.16
2019-04-20T22:52:30.460Z,102794.64
2019-04-20T22:55:12.815Z,102792.75
2019-04-20T22:57:31.865Z,102793.11
2019-04-20T22:59:56.802Z,102793.11
2019-04-20T23:02:22.943Z,102788.11
2019-04-20T23:04:50.908Z,102785.36
2019-04-20T23:07:20.947Z,102784.88
2019-04-20T23:09:54.150Z,102783.87
2019-04-20T23:12:23.770Z,102776.48
2019-04-20T23:14:52.338Z,102772.37
2019-04-20T23:17:27.214Z,102773.22
2019-04-20T23:19:56.217Z,102770.48
2019-04-20T23:22:33.864Z,102767.09
2019-04-20T23:24:55.290Z,102770.84
2019-04-20T23:27:29.364Z,102763.62
2019-04-20T23:29:55.333Z,102759.86
2019-04-20T23:32:26.873Z,102756.76
2019-04-20T23:35:02.287Z,102762.61
2019-04-20T23:37:31.536Z,102761.59
2019-04-20T23:39:57.918Z,102767.09
2019-04-20T23:42:37.646Z,102763.30
2019-04-20T23:45:31.651Z,102758.85
2019-04-20T23:48:03.045Z,102748.73
2019-04-20T23:50:47.547Z,102746.83
2019-04-20T23:53:18.214Z,102743.60
2019-04-20T23:55:31.803Z,102739.97
2019-04-20T23:58:06.424Z,102738.11
